sensor_id;sensor_type;location;lat;lon;timestamp;pressure;altitude;pressure_sealevel;temperature;humidity
9439;BME280;5176;42.622;25.386;2024-02-21T00:00:55;97879.63;;;5.99;100.00
9439;BME280;5176;42.622;25.386;2024-02-21T00:03:23;97887.22;;;6.05;100.00
9439;BME280;5176;42.622;25.386;2024-02-21T00:05:50;97876.03;;;6.03;100.00
9439;BME280;5176;42.622;25.386;2024-02-21T00:08:18;97873.47;;;5.77;100.00
9439;BME280;5176;42.622;25.386;2024-02-21T00:10:47;97872.31;;;5.59;100.00
9439;BME280;5176;42.622;25.386;2024-02-21T00:13:15;97852.31;;;5.36;100.00
9439;BME280;5176;42.622;25.386;2024-02-21T00:15:42;97860.78;;;5.41;100.00
9439;BME280;5176;42.622;25.386;2024-02-21T00:18:09;97868.28;;;5.50;100.00
9439;BME280;5176;42.622;25.386;2024-02-21T00:20:38;97853.41;;;5.54;100.00
9439;BME280;5176;42.622;25.386;2024-02-21T00:23:05;97863.53;;;5.63;100.00
9439;BME280;5176;42.622;25.386;2024-02-21T00:25:33;97865.91;;;5.69;100.00
9439;BME280;5176;42.622;25.386;2024-02-21T00:28:02;97858.75;;;5.76;100.00
9439;BME280;5176;42.622;25.386;2024-02-21T00:30:31;97867.00;;;5.87;100.00
9439;BME280;5176;42.622;25.386;2024-02-21T00:32:58;97873.72;;;5.69;100.00
9439;BME280;5176;42.622;25.386;2024-02-21T00:35:26;97867.19;;;5.57;100.00
9439;BME280;5176;42.622;25.386;2024-02-21T00:37:53;97879.88;;;5.66;100.00
9439;BME280;5176;42.622;25.386;2024-02-21T00:40:22;97868.16;;;5.53;100.00
9439;BME280;5176;42.622;25.386;2024-02-21T00:42:50;97878.28;;;5.62;100.00
9439;BME280;5176;42.622;25.386;2024-02-21T00:45:18;97875.56;;;5.65;100.00
9439;BME280;5176;42.622;25.386;2024-02-21T00:47:46;97862.50;;;5.67;100.00
9439;BME280;5176;42.622;25.386;2024-02-21T00:50:13;97865.75;;;5.73;100.00
9439;BME280;5176;42.622;25.386;2024-02-21T00:52:41;97860.44;;;5.77;100.00
9439;BME280;5176;42.622;25.386;2024-02-21T00:55:08;97852.47;;;5.81;100.00
9439;BME280;5176;42.622;25.386;2024-02-21T00:57:36;97857.44;;;5.89;100.00
9439;BME280;5176;42.622;25.386;2024-02-21T01:00:05;97860.91;;;5.88;100.00
9439;BME280;5176;42.622;25.386;2024-02-21T01:02:35;97855.94;;;5.57;100.00
9439;BME280;5176;42.622;25.386;2024-02-21T01:05:03;97848.41;;;5.23;100.00
9439;BME280;5176;42.622;25.386;2024-02-21T01:07:30;97842.03;;;5.05;100.00
9439;BME280;5176;42.622;25.386;2024-02-21T01:09:58;97837.09;;;4.97;100.00
9439;BME280;5176;42.622;25.386;2024-02-21T01:12:25;97847.94;;;4.83;100.00
9439;BME280;5176;42.622;25.386;2024-02-21T01:14:52;97836.34;;;4.93;100.00
9439;BME280;5176;42.622;25.386;2024-02-21T01:17:20;97839.63;;;4.99;100.00
9439;BME280;5176;42.622;25.386;2024-02-21T01:19:49;97846.00;;;5.16;100.00
9439;BME280;5176;42.622;25.386;2024-02-21T01:22:16;97837.94;;;5.24;100.00
9439;BME280;5176;42.622;25.386;2024-02-21T01:24:43;97834.25;;;5.31;100.00
9439;BME280;5176;42.622;25.386;2024-02-21T01:27:11;97839.53;;;5.28;100.00
9439;BME280;5176;42.622;25.386;2024-02-21T01:29:38;97841.19;;;5.31;100.00
9439;BME280;5176;42.622;25.386;2024-02-21T01:32:06;97847.09;;;5.36;100.00
9439;BME280;5176;42.622;25.386;2024-02-21T01:34:34;97845.56;;;5.30;100.00
9439;BME280;5176;42.622;25.386;2024-02-21T01:37:04;97834.97;;;5.35;100.00
9439;BME280;5176;42.622;25.386;2024-02-21T01:39:33;97830.81;;;5.31;100.00
9439;BME280;5176;42.622;25.386;2024-02-21T01:42:01;97835.88;;;5.34;100.00
9439;BME280;5176;42.622;25.386;2024-02-21T01:44:28;97843.53;;;5.38;100.00
9439;BME280;5176;42.622;25.386;2024-02-21T01:46:56;97842.56;;;5.41;100.00
9439;BME280;5176;42.622;25.386;2024-02-21T01:49:24;97846.84;;;5.43;100.00
9439;BME280;5176;42.622;25.386;2024-02-21T01:51:52;97844.19;;;5.45;100.00
9439;BME280;5176;42.622;25.386;2024-02-21T01:54:22;97840.75;;;5.44;100.00
9439;BME280;5176;42.622;25.386;2024-02-21T01:56:50;97840.69;;;5.46;100.00
9439;BME280;5176;42.622;25.386;2024-02-21T01:59:18;97834.53;;;5.49;100.00
9439;BME280;5176;42.622;25.386;2024-02-21T02:01:47;97845.31;;;5.63;100.00
9439;BME280;5176;42.622;25.386;2024-02-21T02:04:14;97839.34;;;5.59;100.00
9439;BME280;5176;42.622;25.386;2024-02-21T02:06:42;97840.25;;;5.58;100.00
9439;BME280;5176;42.622;25.386;2024-02-21T02:09:10;97828.16;;;5.57;100.00
9439;BME280;5176;42.622;25.386;2024-02-21T02:11:39;97839.41;;;5.58;100.00
9439;BME280;5176;42.622;25.386;2024-02-21T02:14:06;97828.31;;;5.53;100.00
9439;BME280;5176;42.622;25.386;2024-02-21T02:16:34;97833.63;;;5.50;100.00
9439;BME280;5176;42.622;25.386;2024-02-21T02:19:01;97840.19;;;5.35;100.00
9439;BME280;5176;42.622;25.386;2024-02-21T02:21:30;97828.06;;;5.09;100.00
9439;BME280;5176;42.622;25.386;2024-02-21T02:24:01;97828.81;;;5.12;100.00
9439;BME280;5176;42.622;25.386;2024-02-21T02:26:29;97823.53;;;5.14;100.00
9439;BME280;5176;42.622;25.386;2024-02-21T02:28:56;97826.59;;;5.27;100.00
9439;BME280;5176;42.622;25.386;2024-02-21T02:31:23;97829.00;;;5.33;100.00
9439;BME280;5176;42.622;25.386;2024-02-21T02:33:51;97827.34;;;5.30;100.00
9439;BME280;5176;42.622;25.386;2024-02-21T02:36:18;97827.94;;;5.12;100.00
9439;BME280;5176;42.622;25.386;2024-02-21T02:38:46;97818.25;;;5.17;100.00
9439;BME280;5176;42.622;25.386;2024-02-21T02:41:15;97776.50;;;4.97;100.00
9439;BME280;5176;42.622;25.386;2024-02-21T02:43:42;97813.66;;;5.25;100.00
9439;BME280;5176;42.622;25.386;2024-02-21T02:46:10;97834.94;;;5.36;100.00
9439;BME280;5176;42.622;25.386;2024-02-21T02:48:37;97833.09;;;5.40;100.00
9439;BME280;5176;42.622;25.386;2024-02-21T02:51:05;97829.63;;;5.39;100.00
9439;BME280;5176;42.622;25.386;2024-02-21T02:53:32;97833.75;;;5.20;100.00
9439;BME280;5176;42.622;25.386;2024-02-21T02:55:59;97837.84;;;5.27;100.00
9439;BME280;5176;42.622;25.386;2024-02-21T02:58:28;97829.38;;;5.22;100.00
9439;BME280;5176;42.622;25.386;2024-02-21T03:00:56;97836.13;;;5.26;100.00
9439;BME280;5176;42.622;25.386;2024-02-21T03:03:23;97836.72;;;5.34;100.00
9439;BME280;5176;42.622;25.386;2024-02-21T03:05:50;97828.09;;;5.34;100.00
9439;BME280;5176;42.622;25.386;2024-02-21T03:08:18;97840.09;;;5.38;100.00
9439;BME280;5176;42.622;25.386;2024-02-21T03:10:45;97836.59;;;5.39;100.00
9439;BME280;5176;42.622;25.386;2024-02-21T03:13:13;97843.41;;;5.41;100.00
9439;BME280;5176;42.622;25.386;2024-02-21T03:15:42;97845.88;;;5.46;100.00
9439;BME280;5176;42.622;25.386;2024-02-21T03:18:09;97834.75;;;5.42;100.00
9439;BME280;5176;42.622;25.386;2024-02-21T03:20:37;97836.38;;;5.45;100.00
9439;BME280;5176;42.622;25.386;2024-02-21T03:23:04;97840.69;;;5.46;100.00
9439;BME280;5176;42.622;25.386;2024-02-21T03:25:31;97838.34;;;5.38;100.00
9439;BME280;5176;42.622;25.386;2024-02-21T03:27:59;97842.09;;;5.30;100.00
9439;BME280;5176;42.622;25.386;2024-02-21T03:30:27;97840.28;;;5.32;100.00
9439;BME280;5176;42.622;25.386;2024-02-21T03:32:56;97843.69;;;5.34;100.00
9439;BME280;5176;42.622;25.386;2024-02-21T03:35:24;97849.72;;;5.34;100.00
9439;BME280;5176;42.622;25.386;2024-02-21T03:37:53;97837.56;;;5.35;100.00
9439;BME280;5176;42.622;25.386;2024-02-21T03:40:21;97835.94;;;5.32;100.00
9439;BME280;5176;42.622;25.386;2024-02-21T03:42:48;97839.34;;;5.34;100.00
9439;BME280;5176;42.622;25.386;2024-02-21T03:45:16;97826.59;;;5.27;100.00
9439;BME280;5176;42.622;25.386;2024-02-21T03:47:43;97839.53;;;5.28;100.00
9439;BME280;5176;42.622;25.386;2024-02-21T03:50:12;97833.47;;;5.28;100.00
9439;BME280;5176;42.622;25.386;2024-02-21T03:52:40;97837.69;;;5.32;100.00
9439;BME280;5176;42.622;25.386;2024-02-21T03:55:08;97833.41;;;5.31;100.00
9439;BME280;5176;42.622;25.386;2024-02-21T03:57:35;97831.78;;;5.27;100.00
9439;BME280;5176;42.622;25.386;2024-02-21T04:00:04;97844.72;;;5.30;100.00
9439;BME280;5176;42.622;25.386;2024-02-21T04:02:36;97838.53;;;5.32;100.00
9439;BME280;5176;42.622;25.386;2024-02-21T04:05:04;97847.97;;;5.35;100.00
9439;BME280;5176;42.622;25.386;2024-02-21T04:07:36;97842.03;;;5.31;100.00
9439;BME280;5176;42.622;25.386;2024-02-21T04:10:04;97829.50;;;5.17;100.00
9439;BME280;5176;42.622;25.386;2024-02-21T04:12:32;97831.00;;;5.25;100.00
9439;BME280;5176;42.622;25.386;2024-02-21T04:14:59;97833.59;;;5.25;100.00
9439;BME280;5176;42.622;25.386;2024-02-21T04:17:27;97828.34;;;5.26;100.00
9439;BME280;5176;42.622;25.386;2024-02-21T04:20:02;97840.28;;;5.32;100.00
9439;BME280;5176;42.622;25.386;2024-02-21T04:22:31;97840.34;;;5.30;100.00
9439;BME280;5176;42.622;25.386;2024-02-21T04:25:01;97838.75;;;5.26;100.00
9439;BME280;5176;42.622;25.386;2024-02-21T04:27:28;97833.66;;;5.23;100.00
9439;BME280;5176;42.622;25.386;2024-02-21T04:29:56;97833.59;;;5.25;100.00
9439;BME280;5176;42.622;25.386;2024-02-21T04:32:23;97837.19;;;5.20;100.00
9439;BME280;5176;42.622;25.386;2024-02-21T04:34:53;97846.47;;;5.28;100.00
9439;BME280;5176;42.622;25.386;2024-02-21T04:37:20;97839.91;;;5.17;100.00
9439;BME280;5176;42.622;25.386;2024-02-21T04:39:48;97848.50;;;5.19;100.00
9439;BME280;5176;42.622;25.386;2024-02-21T04:42:17;97857.19;;;5.18;100.00
9439;BME280;5176;42.622;25.386;2024-02-21T04:44:45;97855.75;;;5.10;100.00
9439;BME280;5176;42.622;25.386;2024-02-21T04:47:12;97854.34;;;4.72;100.00
9439;BME280;5176;42.622;25.386;2024-02-21T04:49:39;97845.66;;;4.73;100.00
9439;BME280;5176;42.622;25.386;2024-02-21T04:52:07;97858.44;;;4.79;100.00
9439;BME280;5176;42.622;25.386;2024-02-21T04:54:34;97855.66;;;4.85;100.00
9439;BME280;5176;42.622;25.386;2024-02-21T04:57:02;97857.47;;;4.83;100.00
9439;BME280;5176;42.622;25.386;2024-02-21T04:59:32;97853.91;;;4.85;100.00
9439;BME280;5176;42.622;25.386;2024-02-21T05:02:00;97864.16;;;4.90;100.00
9439;BME280;5176;42.622;25.386;2024-02-21T05:04:28;97856.69;;;4.79;100.00
9439;BME280;5176;42.622;25.386;2024-02-21T05:06:55;97861.56;;;4.90;100.00
9439;BME280;5176;42.622;25.386;2024-02-21T05:09:22;97865.88;;;4.91;100.00
9439;BME280;5176;42.622;25.386;2024-02-21T05:11:49;97871.66;;;4.99;100.00
9439;BME280;5176;42.622;25.386;2024-02-21T05:14:17;97871.78;;;4.96;100.00
9439;BME280;5176;42.622;25.386;2024-02-21T05:16:45;97878.81;;;4.92;100.00
9439;BME280;5176;42.622;25.386;2024-02-21T05:19:12;97874.31;;;4.98;100.00
9439;BME280;5176;42.622;25.386;2024-02-21T05:21:40;97878.81;;;4.92;100.00
9439;BME280;5176;42.622;25.386;2024-02-21T05:24:13;97890.81;;;4.97;100.00
9439;BME280;5176;42.622;25.386;2024-02-21T05:26:40;97891.00;;;4.90;100.00
9439;BME280;5176;42.622;25.386;2024-02-21T05:29:07;97886.53;;;4.96;100.00
9439;BME280;5176;42.622;25.386;2024-02-21T05:31:56;97897.00;;;4.92;100.00
9439;BME280;5176;42.622;25.386;2024-02-21T05:34:24;97903.91;;;4.64;100.00
9439;BME280;5176;42.622;25.386;2024-02-21T05:36:52;97906.13;;;4.48;100.00
9439;BME280;5176;42.622;25.386;2024-02-21T05:39:20;97904.22;;;4.53;100.00
9439;BME280;5176;42.622;25.386;2024-02-21T05:41:49;97904.44;;;4.46;100.00
9439;BME280;5176;42.622;25.386;2024-02-21T05:44:16;97903.59;;;4.45;100.00
9439;BME280;5176;42.622;25.386;2024-02-21T05:46:44;97909.41;;;4.55;100.00
9439;BME280;5176;42.622;25.386;2024-02-21T05:49:12;97921.16;;;4.67;100.00
9439;BME280;5176;42.622;25.386;2024-02-21T05:51:40;97913.09;;;4.76;100.00
9439;BME280;5176;42.622;25.386;2024-02-21T05:54:07;97924.00;;;4.87;100.00
9439;BME280;5176;42.622;25.386;2024-02-21T05:56:34;97916.78;;;4.97;100.00
9439;BME280;5176;42.622;25.386;2024-02-21T05:59:01;97918.31;;;5.04;100.00
9439;BME280;5176;42.622;25.386;2024-02-21T06:01:29;97922.41;;;5.11;100.00
9439;BME280;5176;42.622;25.386;2024-02-21T06:03:56;97923.25;;;5.11;100.00
9439;BME280;5176;42.622;25.386;2024-02-21T06:06:25;97930.69;;;5.24;100.00
9439;BME280;5176;42.622;25.386;2024-02-21T06:08:52;97927.97;;;5.27;100.00
9439;BME280;5176;42.622;25.386;2024-02-21T06:11:19;97922.34;;;5.40;100.00
9439;BME280;5176;42.622;25.386;2024-02-21T06:13:46;97919.34;;;5.53;100.00
9439;BME280;5176;42.622;25.386;2024-02-21T06:16:14;97918.94;;;5.65;100.00
9439;BME280;5176;42.622;25.386;2024-02-21T06:18:41;97922.97;;;5.73;100.00
9439;BME280;5176;42.622;25.386;2024-02-21T06:21:08;97919.69;;;5.68;100.00
9439;BME280;5176;42.622;25.386;2024-02-21T06:23:38;97936.28;;;5.64;100.00
9439;BME280;5176;42.622;25.386;2024-02-21T06:26:05;97930.09;;;5.68;100.00
9439;BME280;5176;42.622;25.386;2024-02-21T06:28:32;97938.50;;;5.77;100.00
9439;BME280;5176;42.622;25.386;2024-02-21T06:31:00;97937.03;;;5.94;100.00
9439;BME280;5176;42.622;25.386;2024-02-21T06:33:27;97939.41;;;6.02;100.00
9439;BME280;5176;42.622;25.386;2024-02-21T06:35:54;97941.94;;;6.04;100.00
9439;BME280;5176;42.622;25.386;2024-02-21T06:38:22;97939.06;;;6.11;100.00
9439;BME280;5176;42.622;25.386;2024-02-21T06:40:51;97952.16;;;6.10;100.00
9439;BME280;5176;42.622;25.386;2024-02-21T06:43:20;97944.50;;;6.05;100.00
9439;BME280;5176;42.622;25.386;2024-02-21T06:45:48;97937.47;;;6.07;100.00
9439;BME280;5176;42.622;25.386;2024-02-21T06:48:17;97939.88;;;6.13;100.00
9439;BME280;5176;42.622;25.386;2024-02-21T06:50:45;97934.84;;;6.09;100.00
9439;BME280;5176;42.622;25.386;2024-02-21T06:53:13;97938.38;;;6.06;100.00
9439;BME280;5176;42.622;25.386;2024-02-21T06:55:41;97929.84;;;6.03;100.00
9439;BME280;5176;42.622;25.386;2024-02-21T06:58:09;97933.97;;;6.08;100.00
9439;BME280;5176;42.622;25.386;2024-02-21T07:00:38;97932.25;;;6.07;100.00
9439;BME280;5176;42.622;25.386;2024-02-21T07:03:06;97937.31;;;6.12;100.00
9439;BME280;5176;42.622;25.386;2024-02-21T07:05:33;97946.94;;;6.10;100.00
9439;BME280;5176;42.622;25.386;2024-02-21T07:08:00;97947.72;;;6.12;100.00
9439;BME280;5176;42.622;25.386;2024-02-21T07:10:29;97937.16;;;6.16;100.00
9439;BME280;5176;42.622;25.386;2024-02-21T07:12:56;97945.81;;;6.17;100.00
9439;BME280;5176;42.622;25.386;2024-02-21T07:15:25;97941.25;;;6.23;100.00
9439;BME280;5176;42.622;25.386;2024-02-21T07:17:54;97941.41;;;6.19;100.00
9439;BME280;5176;42.622;25.386;2024-02-21T07:20:21;97935.41;;;6.17;100.00
9439;BME280;5176;42.622;25.386;2024-02-21T07:22:48;97937.91;;;6.20;100.00
9439;BME280;5176;42.622;25.386;2024-02-21T07:25:16;97938.59;;;6.25;100.00
9439;BME280;5176;42.622;25.386;2024-02-21T07:27:44;97930.78;;;6.25;100.00
9439;BME280;5176;42.622;25.386;2024-02-21T07:30:12;97924.72;;;6.24;100.00
9439;BME280;5176;42.622;25.386;2024-02-21T07:32:41;97917.25;;;6.15;100.00
9439;BME280;5176;42.622;25.386;2024-02-21T07:35:08;97890.84;;;6.01;100.00
9439;BME280;5176;42.622;25.386;2024-02-21T07:37:37;97919.94;;;6.37;100.00
9439;BME280;5176;42.622;25.386;2024-02-21T07:40:06;97923.91;;;6.71;100.00
9439;BME280;5176;42.622;25.386;2024-02-21T07:42:33;97928.50;;;7.09;100.00
9439;BME280;5176;42.622;25.386;2024-02-21T07:45:01;97932.84;;;7.53;100.00
9439;BME280;5176;42.622;25.386;2024-02-21T07:47:29;97927.94;;;7.87;100.00
9439;BME280;5176;42.622;25.386;2024-02-21T07:49:58;97930.88;;;8.20;95.98
9439;BME280;5176;42.622;25.386;2024-02-21T07:52:25;97935.72;;;8.50;94.62
9439;BME280;5176;42.622;25.386;2024-02-21T07:54:52;97935.97;;;8.83;91.29
9439;BME280;5176;42.622;25.386;2024-02-21T07:57:20;97936.22;;;9.15;87.98
9439;BME280;5176;42.622;25.386;2024-02-21T07:59:47;97934.03;;;9.43;85.60
9439;BME280;5176;42.622;25.386;2024-02-21T08:02:15;97938.91;;;9.68;84.07
9439;BME280;5176;42.622;25.386;2024-02-21T08:04:42;97939.59;;;9.89;80.80
9439;BME280;5176;42.622;25.386;2024-02-21T08:07:11;97939.44;;;10.09;80.38
9439;BME280;5176;42.622;25.386;2024-02-21T08:09:39;97932.66;;;10.40;79.25
9439;BME280;5176;42.622;25.386;2024-02-21T08:12:07;97928.00;;;10.62;77.03
9439;BME280;5176;42.622;25.386;2024-02-21T08:14:35;97937.69;;;10.94;75.85
9439;BME280;5176;42.622;25.386;2024-02-21T08:17:02;97945.81;;;10.89;73.56
9439;BME280;5176;42.622;25.386;2024-02-21T08:19:30;97936.22;;;10.72;75.40
9439;BME280;5176;42.622;25.386;2024-02-21T08:21:57;97931.31;;;10.66;76.08
9439;BME280;5176;42.622;25.386;2024-02-21T08:24:26;97936.56;;;10.82;74.89
9439;BME280;5176;42.622;25.386;2024-02-21T08:26:53;97931.09;;;11.02;74.17
9439;BME280;5176;42.622;25.386;2024-02-21T08:29:20;97930.69;;;11.26;72.62
9439;BME280;5176;42.622;25.386;2024-02-21T08:31:48;97927.94;;;11.59;72.12
9439;BME280;5176;42.622;25.386;2024-02-21T08:34:15;97926.91;;;11.77;69.45
9439;BME280;5176;42.622;25.386;2024-02-21T08:36:43;97921.19;;;12.00;69.73
9439;BME280;5176;42.622;25.386;2024-02-21T08:39:10;97936.88;;;12.16;65.42
9439;BME280;5176;42.622;25.386;2024-02-21T08:41:43;97928.56;;;12.24;65.50
9439;BME280;5176;42.622;25.386;2024-02-21T08:44:11;97933.63;;;12.41;64.19
9439;BME280;5176;42.622;25.386;2024-02-21T08:46:38;97934.69;;;12.53;62.80
9439;BME280;5176;42.622;25.386;2024-02-21T08:49:06;97941.06;;;12.49;60.80
9439;BME280;5176;42.622;25.386;2024-02-21T08:51:33;97926.13;;;12.64;61.12
9439;BME280;5176;42.622;25.386;2024-02-21T08:54:01;97946.25;;;12.79;61.34
9439;BME280;5176;42.622;25.386;2024-02-21T08:56:30;97943.16;;;12.87;61.39
9439;BME280;5176;42.622;25.386;2024-02-21T08:59:00;97934.50;;;12.99;60.68
9439;BME280;5176;42.622;25.386;2024-02-21T09:01:27;97932.41;;;13.18;59.38
9439;BME280;5176;42.622;25.386;2024-02-21T09:03:55;97936.06;;;13.16;56.72
9439;BME280;5176;42.622;25.386;2024-02-21T09:06:22;97944.50;;;13.35;56.00
9439;BME280;5176;42.622;25.386;2024-02-21T09:08:50;97944.84;;;13.43;56.49
9439;BME280;5176;42.622;25.386;2024-02-21T09:11:17;97932.75;;;13.41;57.10
9439;BME280;5176;42.622;25.386;2024-02-21T09:13:44;97933.97;;;13.35;57.26
9439;BME280;5176;42.622;25.386;2024-02-21T09:16:13;97928.31;;;13.41;54.32
9439;BME280;5176;42.622;25.386;2024-02-21T09:18:40;97929.44;;;13.51;54.89
9439;BME280;5176;42.622;25.386;2024-02-21T09:21:08;97915.38;;;13.38;55.01
9439;BME280;5176;42.622;25.386;2024-02-21T09:23:35;97924.72;;;13.69;56.04
9439;BME280;5176;42.622;25.386;2024-02-21T09:26:03;97934.81;;;13.89;53.01
9439;BME280;5176;42.622;25.386;2024-02-21T09:28:30;97927.38;;;14.09;53.23
9439;BME280;5176;42.622;25.386;2024-02-21T09:30:59;97920.31;;;14.22;51.81
9439;BME280;5176;42.622;25.386;2024-02-21T09:33:27;97916.00;;;14.34;51.33
9439;BME280;5176;42.622;25.386;2024-02-21T09:35:55;97918.84;;;14.43;50.93
9439;BME280;5176;42.622;25.386;2024-02-21T09:38:22;97915.81;;;14.62;50.95
9439;BME280;5176;42.622;25.386;2024-02-21T09:40:55;97916.53;;;14.77;49.72
9439;BME280;5176;42.622;25.386;2024-02-21T09:43:26;97922.78;;;14.89;48.34
9439;BME280;5176;42.622;25.386;2024-02-21T09:45:55;97917.78;;;14.97;48.48
9439;BME280;5176;42.622;25.386;2024-02-21T09:48:34;97909.53;;;15.02;48.18
9439;BME280;5176;42.622;25.386;2024-02-21T09:51:07;97907.84;;;15.13;47.45
9439;BME280;5176;42.622;25.386;2024-02-21T09:53:37;97907.38;;;15.32;46.61
9439;BME280;5176;42.622;25.386;2024-02-21T09:56:08;97903.53;;;15.36;44.09
9439;BME280;5176;42.622;25.386;2024-02-21T09:58:36;97902.16;;;15.31;43.64
9439;BME280;5176;42.622;25.386;2024-02-21T10:01:03;97892.47;;;15.55;44.91
9439;BME280;5176;42.622;25.386;2024-02-21T10:03:34;97884.09;;;15.61;43.89
9439;BME280;5176;42.622;25.386;2024-02-21T10:06:01;97894.00;;;15.70;43.42
9439;BME280;5176;42.622;25.386;2024-02-21T10:08:29;97885.16;;;15.59;44.15
9439;BME280;5176;42.622;25.386;2024-02-21T10:10:56;97884.75;;;15.65;43.36
9439;BME280;5176;42.622;25.386;2024-02-21T10:13:26;97874.72;;;15.81;42.77
9439;BME280;5176;42.622;25.386;2024-02-21T10:16:04;97869.84;;;15.51;42.42
9439;BME280;5176;42.622;25.386;2024-02-21T10:18:34;97865.50;;;15.39;42.04
9439;BME280;5176;42.622;25.386;2024-02-21T10:21:02;97865.50;;;15.02;42.74
9439;BME280;5176;42.622;25.386;2024-02-21T10:23:44;97861.84;;;14.92;42.61
9439;BME280;5176;42.622;25.386;2024-02-21T10:26:11;97855.41;;;14.83;43.27
9439;BME280;5176;42.622;25.386;2024-02-21T10:28:39;97855.00;;;14.77;42.25
9439;BME280;5176;42.622;25.386;2024-02-21T10:31:08;97852.81;;;14.70;41.10
9439;BME280;5176;42.622;25.386;2024-02-21T10:33:38;97848.31;;;14.47;41.27
9439;BME280;5176;42.622;25.386;2024-02-21T10:36:08;97812.09;;;14.11;40.89
9439;BME280;5176;42.622;25.386;2024-02-21T10:38:39;97838.81;;;14.19;41.16
9439;BME280;5176;42.622;25.386;2024-02-21T10:41:06;97837.97;;;14.06;41.10
9439;BME280;5176;42.622;25.386;2024-02-21T10:43:38;97838.38;;;14.00;40.81
9439;BME280;5176;42.622;25.386;2024-02-21T10:46:09;97839.31;;;13.99;40.99
9439;BME280;5176;42.622;25.386;2024-02-21T10:48:52;97834.47;;;13.93;41.42
9439;BME280;5176;42.622;25.386;2024-02-21T10:51:23;97829.81;;;13.83;42.13
9439;BME280;5176;42.622;25.386;2024-02-21T10:54:00;97832.78;;;13.79;40.93
9439;BME280;5176;42.622;25.386;2024-02-21T10:56:30;97822.75;;;13.71;41.25
9439;BME280;5176;42.622;25.386;2024-02-21T10:59:01;97811.34;;;13.71;41.80
9439;BME280;5176;42.622;25.386;2024-02-21T11:01:29;97818.41;;;13.70;41.86
9439;BME280;5176;42.622;25.386;2024-02-21T11:04:02;97810.47;;;13.57;41.78
9439;BME280;5176;42.622;25.386;2024-02-21T11:06:30;97808.06;;;13.54;40.59
9439;BME280;5176;42.622;25.386;2024-02-21T11:09:04;97807.53;;;13.62;40.73
9439;BME280;5176;42.622;25.386;2024-02-21T11:11:35;97804.78;;;13.63;39.41
9439;BME280;5176;42.622;25.386;2024-02-21T11:14:10;97810.72;;;13.67;39.95
9439;BME280;5176;42.622;25.386;2024-02-21T11:16:41;97816.53;;;13.72;39.93
9439;BME280;5176;42.622;25.386;2024-02-21T11:19:19;97815.56;;;13.60;40.80
9439;BME280;5176;42.622;25.386;2024-02-21T11:21:47;97799.50;;;13.38;40.79
9439;BME280;5176;42.622;25.386;2024-02-21T11:24:25;97802.94;;;13.26;41.71
9439;BME280;5176;42.622;25.386;2024-02-21T11:26:53;97803.47;;;13.31;41.73
9439;BME280;5176;42.622;25.386;2024-02-21T11:29:23;97800.09;;;13.29;42.02
9439;BME280;5176;42.622;25.386;2024-02-21T11:31:52;97794.00;;;13.14;42.66
9439;BME280;5176;42.622;25.386;2024-02-21T11:34:21;97798.88;;;12.93;44.01
9439;BME280;5176;42.622;25.386;2024-02-21T11:36:49;97798.25;;;12.75;45.54
9439;BME280;5176;42.622;25.386;2024-02-21T11:39:20;97794.81;;;12.61;45.91
9439;BME280;5176;42.622;25.386;2024-02-21T11:42:02;97796.13;;;12.68;45.58
9439;BME280;5176;42.622;25.386;2024-02-21T11:44:30;97798.09;;;12.78;44.03
9439;BME280;5176;42.622;25.386;2024-02-21T11:46:57;97788.28;;;12.80;43.75
9439;BME280;5176;42.622;25.386;2024-02-21T11:49:28;97788.47;;;12.92;43.99
9439;BME280;5176;42.622;25.386;2024-02-21T11:51:59;97781.97;;;13.10;43.85
9439;BME280;5176;42.622;25.386;2024-02-21T11:54:29;97782.53;;;13.15;44.84
9439;BME280;5176;42.622;25.386;2024-02-21T11:56:57;97770.16;;;12.76;46.92
9439;BME280;5176;42.622;25.386;2024-02-21T11:59:24;97777.59;;;12.28;47.04
9439;BME280;5176;42.622;25.386;2024-02-21T12:01:52;97774.88;;;12.15;47.34
9439;BME280;5176;42.622;25.386;2024-02-21T12:04:20;97780.97;;;12.16;46.17
9439;BME280;5176;42.622;25.386;2024-02-21T12:06:52;97778.53;;;12.13;44.54
9439;BME280;5176;42.622;25.386;2024-02-21T12:09:22;97776.94;;;12.10;44.00
9439;BME280;5176;42.622;25.386;2024-02-21T12:11:57;97776.38;;;12.34;43.93
9439;BME280;5176;42.622;25.386;2024-02-21T12:14:25;97780.19;;;12.42;43.80
9439;BME280;5176;42.622;25.386;2024-02-21T12:16:54;97768.81;;;12.56;44.13
9439;BME280;5176;42.622;25.386;2024-02-21T12:19:22;97779.78;;;12.63;43.78
9439;BME280;5176;42.622;25.386;2024-02-21T12:21:51;97773.19;;;12.70;42.86
9439;BME280;5176;42.622;25.386;2024-02-21T12:24:22;97774.91;;;12.71;44.13
9439;BME280;5176;42.622;25.386;2024-02-21T12:26:50;97767.22;;;12.53;44.62
9439;BME280;5176;42.622;25.386;2024-02-21T12:29:18;97775.59;;;12.46;44.73
9439;BME280;5176;42.622;25.386;2024-02-21T12:31:45;97769.88;;;12.39;44.47
9439;BME280;5176;42.622;25.386;2024-02-21T12:34:14;97775.13;;;12.39;44.47
9439;BME280;5176;42.622;25.386;2024-02-21T12:36:42;97777.28;;;12.47;44.60
9439;BME280;5176;42.622;25.386;2024-02-21T12:39:11;97772.94;;;12.60;44.44
9439;BME280;5176;42.622;25.386;2024-02-21T12:41:39;97765.41;;;12.68;43.84
9439;BME280;5176;42.622;25.386;2024-02-21T12:44:06;97758.06;;;12.73;44.01
9439;BME280;5176;42.622;25.386;2024-02-21T12:46:34;97768.03;;;12.68;43.66
9439;BME280;5176;42.622;25.386;2024-02-21T12:49:01;97755.53;;;12.72;44.47
9439;BME280;5176;42.622;25.386;2024-02-21T12:51:29;97767.19;;;12.68;44.83
9439;BME280;5176;42.622;25.386;2024-02-21T12:53:56;97761.38;;;12.63;44.63
9439;BME280;5176;42.622;25.386;2024-02-21T12:56:26;97754.50;;;12.74;44.98
9439;BME280;5176;42.622;25.386;2024-02-21T12:58:54;97759.34;;;12.80;44.25
9439;BME280;5176;42.622;25.386;2024-02-21T13:01:21;97762.53;;;12.86;44.27
9439;BME280;5176;42.622;25.386;2024-02-21T13:03:48;97756.44;;;12.85;43.13
9439;BME280;5176;42.622;25.386;2024-02-21T13:06:16;97753.16;;;12.81;43.93
9439;BME280;5176;42.622;25.386;2024-02-21T13:08:44;97753.84;;;12.71;44.02
9439;BME280;5176;42.622;25.386;2024-02-21T13:11:13;97758.91;;;12.74;43.41
9439;BME280;5176;42.622;25.386;2024-02-21T13:13:42;97760.19;;;12.81;43.95
9439;BME280;5176;42.622;25.386;2024-02-21T13:16:09;97753.16;;;12.81;43.49